Terminal Aerodrome Forecast
Issued by NWS Quad Cities IA IL

Home | Current Version | Previous Version | Text Only | Print | Product List | Glossary On
Versions: 1 2 3 4 5 6 7 8 9 10 11 12 13 14 15
000
FTUS43 KDVN 181700
TAFDBQ
TAF
KDBQ 181720Z 1818/1918 36004KT P6SM SKC
     FM182000 07007KT P6SM SKC
     FM190200 11006KT P6SM SCT250
     FM191600 17014G21KT P6SM SCT250=

USA.gov is the U.S. government's official web portal to all federal, state and local government web resources and services.